createdAt,value
2023-05-22T00:02:33.148Z,4.97
2023-05-22T00:05:39.220Z,5.40
2023-05-22T00:08:41.764Z,5.82
2023-05-22T00:11:44.181Z,4.05
2023-05-22T00:14:46.451Z,4.55
2023-05-22T00:17:48.732Z,4.90
2023-05-22T00:20:51.886Z,5.28
2023-05-22T00:23:54.159Z,4.90
2023-05-22T00:26:56.493Z,4.43
2023-05-22T00:29:59.374Z,4.10
2023-05-22T00:33:02.831Z,4.32
2023-05-22T00:36:06.203Z,3.75
2023-05-22T00:39:09.763Z,4.05
2023-05-22T00:42:12.534Z,4.28
2023-05-22T00:45:15.329Z,4.57
2023-05-22T00:48:17.608Z,4.68
2023-05-22T00:51:24.124Z,3.83
2023-05-22T00:54:26.571Z,4.28
2023-05-22T00:57:28.939Z,3.42
2023-05-22T01:00:34.316Z,3.30
2023-05-22T01:03:44.665Z,4.03
2023-05-22T01:06:47.758Z,3.20
2023-05-22T01:09:50.138Z,3.80
2023-05-22T01:13:10.324Z,3.17
2023-05-22T01:16:30.088Z,3.08
2023-05-22T01:19:39.482Z,3.00
2023-05-22T01:22:50.062Z,2.90
2023-05-22T01:26:04.861Z,2.40
2023-05-22T01:29:19.110Z,2.80
2023-05-22T01:32:26.240Z,2.50
2023-05-22T01:35:29.928Z,2.30
2023-05-22T01:38:32.771Z,2.83
2023-05-22T01:41:36.294Z,2.75
2023-05-22T01:44:38.959Z,2.53
2023-05-22T01:47:41.320Z,2.75
2023-05-22T01:50:45.395Z,2.75
2023-05-22T01:54:26.309Z,2.20
2023-05-22T01:57:37.537Z,2.33
2023-05-22T02:00:43.807Z,3.00
2023-05-22T02:03:51.816Z,2.65
2023-05-22T02:06:54.424Z,2.65
2023-05-22T02:09:57.792Z,3.35
2023-05-22T02:13:00.448Z,2.33
2023-05-22T02:16:04.194Z,2.45
2023-05-22T02:19:06.860Z,3.10
2023-05-22T02:22:13.814Z,2.50
2023-05-22T02:25:17.262Z,2.30
2023-05-22T02:28:20.827Z,2.75
2023-05-22T02:31:23.378Z,2.67
2023-05-22T02:34:26.904Z,2.55
2023-05-22T02:37:29.242Z,2.92
2023-05-22T02:40:31.514Z,2.60
2023-05-22T02:43:34.311Z,2.35
2023-05-22T02:46:36.933Z,2.80
2023-05-22T02:49:39.257Z,2.88
2023-05-22T02:52:41.539Z,2.92
2023-05-22T02:55:43.949Z,2.75
2023-05-22T02:58:46.204Z,2.88
2023-05-22T03:01:49.468Z,2.85
2023-05-22T03:04:51.855Z,2.90
2023-05-22T03:07:54.223Z,3.17
2023-05-22T03:10:58.153Z,3.15
2023-05-22T03:14:00.735Z,3.38
2023-05-22T03:17:03.714Z,2.95
2023-05-22T03:20:08.535Z,3.03
2023-05-22T03:23:12.074Z,2.50
2023-05-22T03:26:14.924Z,4.00
2023-05-22T03:29:17.756Z,2.85
2023-05-22T03:32:20.163Z,3.03
2023-05-22T03:35:24.798Z,3.90
2023-05-22T03:38:27.173Z,2.70
2023-05-22T03:41:30.709Z,3.22
2023-05-22T03:44:33.045Z,3.03
2023-05-22T03:47:36.718Z,3.00
2023-05-22T03:50:39.256Z,3.03
2023-05-22T03:53:41.747Z,2.63
2023-05-22T03:56:44.106Z,3.28
2023-05-22T03:59:46.713Z,2.55
2023-05-22T04:02:50.529Z,2.88
2023-05-22T04:05:53.498Z,2.42
2023-05-22T04:08:55.785Z,2.58
2023-05-22T04:11:59.498Z,3.33
2023-05-22T04:15:01.994Z,2.80
2023-05-22T04:18:06.558Z,3.80
2023-05-22T04:21:09.870Z,3.30
2023-05-22T04:24:12.329Z,3.95
2023-05-22T04:27:15.297Z,2.95
2023-05-22T04:30:18.482Z,2.90
2023-05-22T04:33:21.856Z,2.75
2023-05-22T04:36:26.201Z,2.80
2023-05-22T04:39:28.783Z,2.58
2023-05-22T04:42:37.440Z,2.70
2023-05-22T04:45:42.323Z,3.90
2023-05-22T04:48:44.858Z,2.88
2023-05-22T04:51:47.136Z,2.70
2023-05-22T04:54:51.699Z,2.50
2023-05-22T04:57:54.232Z,2.47
2023-05-22T05:00:57.840Z,2.70
2023-05-22T05:04:00.776Z,2.88
2023-05-22T05:07:04.465Z,3.22
2023-05-22T05:10:07.866Z,2.53
2023-05-22T05:13:10.264Z,2.60
2023-05-22T05:16:14.665Z,2.50
2023-05-22T05:19:17.757Z,2.92
2023-05-22T05:22:20.772Z,2.85
2023-05-22T05:25:23.304Z,2.58
2023-05-22T05:28:26.272Z,2.78
2023-05-22T05:31:29.420Z,2.63
2023-05-22T05:34:43.792Z,2.80
2023-05-22T05:37:55.723Z,2.50
2023-05-22T05:40:59.128Z,2.42
2023-05-22T05:44:02.758Z,2.72
2023-05-22T05:47:07.862Z,2.53
2023-05-22T05:50:11.014Z,2.40
2023-05-22T05:53:14.416Z,2.80
2023-05-22T05:56:21.932Z,2.40
2023-05-22T05:59:24.772Z,3.05
2023-05-22T06:02:34.652Z,2.97
2023-05-22T06:05:38.241Z,2.50
2023-05-22T06:08:57.241Z,2.78
2023-05-22T06:12:06.615Z,2.70
2023-05-22T06:15:09.104Z,2.50
2023-05-22T06:18:11.844Z,2.72
2023-05-22T06:21:14.769Z,2.90
2023-05-22T06:24:17.091Z,3.22
2023-05-22T06:27:20.112Z,2.85
2023-05-22T06:30:38.734Z,2.70
2023-05-22T06:33:44.936Z,2.50
2023-05-22T06:36:50.213Z,2.50
2023-05-22T06:39:53.366Z,2.20
2023-05-22T06:43:21.869Z,2.70
2023-05-22T06:46:31.304Z,2.30
2023-05-22T06:49:37.902Z,3.00
2023-05-22T06:52:40.426Z,2.60
2023-05-22T06:55:45.069Z,2.72
2023-05-22T06:58:54.779Z,2.97
2023-05-22T07:02:01.615Z,2.45
2023-05-22T07:05:22.151Z,2.67
2023-05-22T07:08:34.156Z,2.90
2023-05-22T07:11:38.096Z,2.70
2023-05-22T07:14:40.785Z,2.80
2023-05-22T07:17:43.358Z,2.75
2023-05-22T07:20:46.214Z,2.70
2023-05-22T07:23:55.368Z,2.83
2023-05-22T07:27:02.348Z,2.53
2023-05-22T07:30:06.592Z,2.60
2023-05-22T07:33:12.675Z,2.65
2023-05-22T07:36:19.385Z,2.80
2023-05-22T07:39:24.141Z,2.78
2023-05-22T07:42:35.081Z,2.85
2023-05-22T07:45:40.257Z,2.55
2023-05-22T07:48:47.276Z,3.15
2023-05-22T07:51:52.383Z,2.65
2023-05-22T07:55:02.308Z,3.00
2023-05-22T07:58:05.222Z,3.20
2023-05-22T08:01:13.030Z,3.15
2023-05-22T08:04:16.179Z,2.97
2023-05-22T08:07:18.667Z,3.38
2023-05-22T08:10:27.965Z,2.97
2023-05-22T08:13:32.424Z,3.22
2023-05-22T08:16:35.302Z,3.17
2023-05-22T08:19:37.891Z,2.83
2023-05-22T08:22:41.408Z,2.88
2023-05-22T08:25:43.950Z,3.20
2023-05-22T08:28:46.256Z,2.97
2023-05-22T08:31:48.582Z,3.20
2023-05-22T08:34:50.896Z,3.40
2023-05-22T08:37:53.305Z,3.22
2023-05-22T08:40:55.818Z,2.85
2023-05-22T08:43:58.349Z,3.22
2023-05-22T08:47:01.397Z,2.95
2023-05-22T08:50:04.695Z,3.22
2023-05-22T08:53:08.215Z,3.50
2023-05-22T08:56:10.609Z,3.28
2023-05-22T08:59:13.524Z,3.22
2023-05-22T09:02:17.653Z,3.20
2023-05-22T09:05:28.402Z,3.20
2023-05-22T09:08:30.845Z,3.10
2023-05-22T09:11:33.123Z,3.03
2023-05-22T09:14:42.963Z,3.45
2023-05-22T09:17:45.982Z,3.10
2023-05-22T09:20:48.343Z,3.35
2023-05-22T09:23:51.085Z,3.25
2023-05-22T09:26:53.414Z,3.47
2023-05-22T09:29:57.277Z,3.25
2023-05-22T09:32:59.635Z,3.33
2023-05-22T09:36:02.172Z,3.50
2023-05-22T09:39:05.150Z,3.20
2023-05-22T09:42:09.710Z,3.40
2023-05-22T09:45:12.769Z,3.20
2023-05-22T09:48:17.360Z,3.70
2023-05-22T09:51:23.791Z,3.88
2023-05-22T09:54:27.180Z,3.88
2023-05-22T09:57:43.252Z,3.33
2023-05-22T10:00:52.142Z,3.42
2023-05-22T10:03:57.287Z,3.38
2023-05-22T10:07:03.703Z,3.40
2023-05-22T10:10:12.128Z,3.33
2023-05-22T10:13:15.065Z,3.05
2023-05-22T10:16:17.851Z,3.00
2023-05-22T10:19:21.382Z,2.95
2023-05-22T10:22:26.588Z,3.00
2023-05-22T10:25:30.333Z,3.42
2023-05-22T10:28:57.313Z,3.60
2023-05-22T10:32:35.831Z,3.10
2023-05-22T10:36:04.839Z,3.50
2023-05-22T10:39:26.590Z,3.28
2023-05-22T10:42:33.242Z,3.03
2023-05-22T10:45:36.787Z,3.15
2023-05-22T10:48:40.624Z,3.58
2023-05-22T10:51:45.299Z,3.10
2023-05-22T10:54:53.565Z,3.58
2023-05-22T10:57:57.089Z,3.65
2023-05-22T11:01:18.958Z,3.33
2023-05-22T11:04:25.806Z,3.40
2023-05-22T11:07:40.696Z,3.50
2023-05-22T11:10:59.034Z,3.10
2023-05-22T11:14:05.352Z,3.53
2023-05-22T11:17:07.933Z,3.33
2023-05-22T11:20:20.318Z,3.08
2023-05-22T11:23:25.692Z,3.22
2023-05-22T11:26:28.324Z,2.55
2023-05-22T11:29:31.020Z,2.60
2023-05-22T11:32:36.536Z,3.45
2023-05-22T11:35:40.053Z,2.95
2023-05-22T11:38:43.202Z,2.72
2023-05-22T11:41:45.478Z,2.90
2023-05-22T11:44:48.164Z,3.38
2023-05-22T11:47:50.849Z,3.38
2023-05-22T11:50:53.633Z,3.67
2023-05-22T11:53:57.298Z,3.35
2023-05-22T11:56:59.638Z,2.83
2023-05-22T12:00:04.236Z,2.42
2023-05-22T12:03:14.273Z,2.60
2023-05-22T12:06:18.153Z,2.78
2023-05-22T12:09:20.788Z,3.10
2023-05-22T12:12:23.306Z,2.92
2023-05-22T12:15:25.789Z,3.10
2023-05-22T12:18:36.889Z,3.13
2023-05-22T12:21:40.972Z,3.17
2023-05-22T12:24:46.319Z,2.92
2023-05-22T12:27:48.659Z,2.90
2023-05-22T12:30:57.912Z,2.95
2023-05-22T12:34:01.467Z,2.95
2023-05-22T12:37:03.828Z,2.88
2023-05-22T12:40:06.903Z,3.50
2023-05-22T12:43:09.219Z,3.25
2023-05-22T12:46:11.559Z,2.70
2023-05-22T12:49:13.863Z,3.35
2023-05-22T12:52:16.172Z,2.83
2023-05-22T12:55:18.514Z,2.85
2023-05-22T12:58:20.847Z,3.53
2023-05-22T13:01:24.448Z,3.25
2023-05-22T13:04:26.862Z,2.75
2023-05-22T13:07:29.225Z,3.10
2023-05-22T13:10:31.668Z,3.28
2023-05-22T13:13:33.999Z,2.85
2023-05-22T13:16:36.801Z,2.90
2023-05-22T13:19:39.320Z,2.80
2023-05-22T13:22:41.891Z,2.92
2023-05-22T13:25:44.250Z,3.05
2023-05-22T13:28:46.738Z,2.65
2023-05-22T13:31:49.131Z,2.83
2023-05-22T13:34:51.448Z,2.90
2023-05-22T13:37:53.957Z,3.00
2023-05-22T13:40:56.334Z,2.97
2023-05-22T13:43:58.689Z,3.58
2023-05-22T13:47:01.159Z,2.42
2023-05-22T13:50:03.666Z,3.13
2023-05-22T13:53:06.050Z,3.17
2023-05-22T13:56:08.394Z,3.00
2023-05-22T13:59:10.842Z,3.17
2023-05-22T14:02:13.511Z,2.50
2023-05-22T14:05:15.939Z,3.05
2023-05-22T14:08:18.323Z,2.80
2023-05-22T14:11:21.729Z,2.92
2023-05-22T14:14:24.898Z,3.17
2023-05-22T14:17:27.221Z,3.30
2023-05-22T14:20:35.059Z,2.88
2023-05-22T14:23:37.545Z,2.78
2023-05-22T14:26:41.448Z,2.78
2023-05-22T14:29:46.317Z,3.08
2023-05-22T14:33:05.685Z,3.13
2023-05-22T14:36:10.062Z,2.85
2023-05-22T14:42:31.661Z,2.90
2023-05-22T14:45:34.694Z,2.72
2023-05-22T14:48:37.291Z,2.80
2023-05-22T14:51:39.576Z,3.70
2023-05-22T14:54:42.787Z,3.28
2023-05-22T14:57:45.522Z,3.00
2023-05-22T15:00:47.782Z,3.42
2023-05-22T15:03:50.071Z,3.10
2023-05-22T15:06:52.403Z,3.42
2023-05-22T15:09:56.450Z,2.72
2023-05-22T15:12:58.718Z,3.00
2023-05-22T15:16:01.376Z,3.03
2023-05-22T15:19:03.770Z,2.78
2023-05-22T15:22:18.890Z,2.80
2023-05-22T15:25:22.116Z,3.00
2023-05-22T15:28:24.598Z,2.63
2023-05-22T15:31:30.974Z,3.38
2023-05-22T15:34:33.284Z,2.97
2023-05-22T15:37:36.569Z,2.60
2023-05-22T15:40:43.424Z,3.20
2023-05-22T15:43:46.468Z,2.92
2023-05-22T15:46:48.733Z,3.10
2023-05-22T15:49:51.243Z,2.92
2023-05-22T15:52:53.532Z,2.78
2023-05-22T15:55:55.791Z,2.65
2023-05-22T15:58:58.281Z,3.47
2023-05-22T16:02:00.667Z,3.08
2023-05-22T16:05:02.976Z,3.05
2023-05-22T16:08:12.400Z,3.22
2023-05-22T16:11:14.688Z,2.95
2023-05-22T16:14:17.150Z,3.03
2023-05-22T16:17:19.474Z,3.22
2023-05-22T16:20:22.738Z,3.10
2023-05-22T16:23:25.199Z,3.13
2023-05-22T16:26:27.553Z,3.40
2023-05-22T16:29:32.267Z,2.97
2023-05-22T16:32:34.777Z,3.20
2023-05-22T16:35:37.143Z,3.28
2023-05-22T16:38:39.551Z,4.47
2023-05-22T16:41:41.891Z,6.50
2023-05-22T16:44:44.268Z,5.07
2023-05-22T16:47:46.621Z,3.70
2023-05-22T16:50:48.988Z,3.55
2023-05-22T16:53:51.300Z,3.05
2023-05-22T16:56:53.694Z,3.10
2023-05-22T16:59:57.825Z,3.40
2023-05-22T17:03:00.650Z,3.10
2023-05-22T17:06:03.660Z,3.03
2023-05-22T17:09:05.941Z,3.55
2023-05-22T17:12:08.897Z,3.45
2023-05-22T17:15:11.895Z,3.42
2023-05-22T17:18:17.772Z,3.33
2023-05-22T17:21:20.637Z,3.08
2023-05-22T17:24:22.984Z,2.97
2023-05-22T17:27:35.418Z,3.08
2023-05-22T17:30:39.303Z,3.33
2023-05-22T17:33:43.320Z,3.25
2023-05-22T17:36:45.670Z,3.20
2023-05-22T17:39:47.989Z,3.08
2023-05-22T17:42:50.321Z,2.70
2023-05-22T17:45:53.828Z,4.30
2023-05-22T17:48:56.509Z,2.53
2023-05-22T17:51:58.835Z,3.03
2023-05-22T17:55:01.156Z,2.72
2023-05-22T17:58:03.499Z,2.55
2023-05-22T18:01:08.146Z,2.78
2023-05-22T18:04:12.364Z,3.25
2023-05-22T18:07:17.898Z,3.17
2023-05-22T18:10:25.969Z,3.03
2023-05-22T18:13:29.280Z,2.78
2023-05-22T18:16:36.276Z,3.10
2023-05-22T18:19:45.850Z,3.03
2023-05-22T18:22:50.203Z,2.40
2023-05-22T18:25:52.737Z,3.35
2023-05-22T18:28:58.690Z,3.10
2023-05-22T18:32:03.221Z,2.95
2023-05-22T18:35:08.150Z,3.05
2023-05-22T18:38:19.512Z,3.05
2023-05-22T18:41:22.450Z,2.70
2023-05-22T18:44:24.743Z,3.13
2023-05-22T18:47:27.120Z,2.55
2023-05-22T18:50:29.598Z,2.85
2023-05-22T18:53:31.940Z,3.05
2023-05-22T18:56:34.225Z,3.42
2023-05-22T18:59:37.267Z,2.75
2023-05-22T19:02:39.615Z,2.90
2023-05-22T19:05:43.049Z,3.20
2023-05-22T19:08:45.738Z,2.63
2023-05-22T19:11:48.102Z,2.95
2023-05-22T19:15:01.798Z,3.22
2023-05-22T19:18:04.251Z,2.50
2023-05-22T19:21:08.249Z,2.30
2023-05-22T19:24:16.429Z,2.58
2023-05-22T19:27:22.971Z,2.90
2023-05-22T19:30:27.174Z,3.30
2023-05-22T19:33:35.923Z,2.90
2023-05-22T19:36:48.799Z,2.58
2023-05-22T19:39:51.312Z,2.90
2023-05-22T19:42:57.276Z,2.42
2023-05-22T19:46:02.723Z,3.00
2023-05-22T19:49:09.105Z,2.80
2023-05-22T19:52:21.204Z,3.03
2023-05-22T19:55:27.333Z,2.90
2023-05-22T19:58:30.051Z,3.28
2023-05-22T20:01:37.193Z,3.05
2023-05-22T20:04:44.028Z,3.10
2023-05-22T20:07:49.415Z,3.28
2023-05-22T20:11:01.125Z,3.08
2023-05-22T20:14:08.049Z,2.90
2023-05-22T20:17:13.488Z,2.90
2023-05-22T20:20:22.204Z,2.97
2023-05-22T20:23:28.090Z,2.70
2023-05-22T20:26:34.103Z,3.05
2023-05-22T20:29:36.923Z,2.83
2023-05-22T20:32:40.378Z,3.22
2023-05-22T20:35:43.910Z,2.90
2023-05-22T20:38:47.525Z,3.08
2023-05-22T20:41:50.528Z,2.92
2023-05-22T20:45:05.532Z,3.35
2023-05-22T20:48:09.359Z,3.17
2023-05-22T20:51:21.114Z,3.03
2023-05-22T20:54:23.486Z,2.83
2023-05-22T20:57:27.042Z,2.95
2023-05-22T21:00:32.071Z,2.85
2023-05-22T21:03:34.703Z,3.85
2023-05-22T21:06:37.109Z,2.70
2023-05-22T21:09:39.493Z,3.28
2023-05-22T21:12:41.791Z,2.95
2023-05-22T21:15:44.133Z,2.65
2023-05-22T21:18:46.698Z,3.05
2023-05-22T21:21:48.990Z,3.40
2023-05-22T21:24:51.317Z,3.45
2023-05-22T21:27:54.544Z,3.67
2023-05-22T21:30:56.906Z,2.75
2023-05-22T21:33:59.239Z,3.30
2023-05-22T21:37:01.551Z,3.47
2023-05-22T21:40:04.079Z,3.45
2023-05-22T21:43:06.568Z,3.40
2023-05-22T21:46:08.911Z,3.45
2023-05-22T21:49:11.208Z,3.63
2023-05-22T21:52:15.574Z,3.38
2023-05-22T21:55:17.884Z,3.58
2023-05-22T21:58:20.427Z,3.40
2023-05-22T22:01:23.529Z,3.53
2023-05-22T22:04:25.830Z,3.97
2023-05-22T22:07:28.109Z,3.28
2023-05-22T22:10:30.536Z,3.63
2023-05-22T22:13:32.908Z,4.22
2023-05-22T22:16:36.096Z,4.10
2023-05-22T22:19:38.573Z,4.03
2023-05-22T22:22:41.112Z,3.72
2023-05-22T22:25:43.365Z,4.13
2023-05-22T22:28:45.940Z,4.30
2023-05-22T22:31:48.338Z,4.10
2023-05-22T22:34:54.624Z,4.22
2023-05-22T22:37:56.910Z,4.07
2023-05-22T22:41:00.451Z,3.65
2023-05-22T22:44:02.918Z,3.63
2023-05-22T22:47:05.552Z,3.65
2023-05-22T22:50:09.997Z,4.55
2023-05-22T22:53:12.336Z,4.63
2023-05-22T22:56:14.827Z,4.57
2023-05-22T22:59:17.527Z,3.97
2023-05-22T23:02:19.869Z,3.80
2023-05-22T23:05:22.920Z,4.25
2023-05-22T23:08:25.962Z,3.75
2023-05-22T23:11:37.469Z,4.47
2023-05-22T23:14:39.950Z,4.40
2023-05-22T23:17:42.310Z,5.05
2023-05-22T23:20:44.670Z,4.03
2023-05-22T23:23:46.993Z,4.07
2023-05-22T23:26:49.298Z,4.55
2023-05-22T23:29:51.756Z,4.35
2023-05-22T23:32:54.116Z,4.00
2023-05-22T23:35:56.465Z,4.25
2023-05-22T23:38:58.736Z,4.80
2023-05-22T23:42:02.231Z,4.13
2023-05-22T23:45:05.006Z,4.30
2023-05-22T23:48:07.415Z,4.40
2023-05-22T23:51:10.101Z,4.50
2023-05-22T23:54:13.192Z,4.25
2023-05-22T23:57:15.703Z,4.05
